This is the latest recevied weather packets stored in our database for station/object KD0MAC. If no packets are shown the sender has not sent any weather packets the latest 10 day(s).
| Time | Temp. | Humidity | Pressure | Rain* | Wind** | Luminosity | Snow |
|---|---|---|---|---|---|---|---|
| 1777597226 | 13.89° C | 54% | 1017.9 hPa | 0 mm | - | 21 W/m² | - |
| 1777596927 | 13.89° C | 52% | 1017.9 hPa | 0 mm | - | 25 W/m² | - |
| 1777596626 | 14.44° C | 51% | 1017.9 hPa | 0 mm | - | 29 W/m² | - |
| 1777596327 | 14.44° C | 49% | 1017.9 hPa | 0 mm | - | 35 W/m² | - |
| 1777596026 | 15° C | 50% | 1017.9 hPa | 0 mm | - | 41 W/m² | - |
| 1777595726 | 15° C | 48% | 1017.9 hPa | 0 mm | - | 49 W/m² | - |
| 1777595426 | 15° C | 48% | 1017.9 hPa | 0 mm | - | 59 W/m² | - |
| 1777595126 | 15° C | 48% | 1017.6 hPa | 0 mm | - | 67 W/m² | - |
| 1777594826 | 15° C | 46% | 1017.9 hPa | 0 mm | - | 75 W/m² | - |
| 1777594526 | 15.56° C | 46% | 1017.6 hPa | 0 mm | - | 84 W/m² | - |
| 1777594226 | 15.56° C | 46% | 1017.6 hPa | 0 mm | - | 90 W/m² | - |
| 1777593926 | 16.11° C | 44% | 1017.6 hPa | 0 mm | - | 97 W/m² | - |
| 1777593625 | 16.67° C | 43% | 1017.6 hPa | 0 mm | - | 107 W/m² | - |
| 1777593326 | 16.67° C | 43% | 1017.6 hPa | 0 mm | - | 109 W/m² | - |
| 1777593025 | 16.67° C | 43% | 1017.9 hPa | 0 mm | - | 117 W/m² | - |
| 1777560053 | 10° C | 86% | 1020 hPa | 0 mm | - | 68 W/m² | - |
| 1777558826 | 10.56° C | 80% | 1020 hPa | 0 mm | - | 39 W/m² | - |
| 1777511726 | 13.33° C | 49% | 1017.3 hPa | 0 mm | - | 17 W/m² | - |
| 1777398625 | 8.89° C | 68% | 1017.6 hPa | - | - | 121 W/m² | - |
| 1777397727 | 8.89° C | 68% | 1017.9 hPa | - | - | 156 W/m² | - |
| 1777396825 | 8.33° C | 71% | 1017.9 hPa | 0 mm | - | 150 W/m² | - |
| 1777395626 | 7.78° C | 72% | 1017.9 hPa | 0 mm | - | 87 W/m² | - |
| 1777395326 | 7.78° C | 73% | 1018.3 hPa | 0 mm | - | 78 W/m² | - |
| 1777391425 | 7.78° C | 72% | 1017.9 hPa | 0 mm | - | 73 W/m² | - |
| 1777390226 | 7.78° C | 72% | 1017.6 hPa | 0 mm | - | 124 W/m² | - |
* Rain latest hour (hover to see other rain measurements)
** Current wind speed in m/s (hover to see current wind gust speed)